Share

Grenville, NM (88424)

9:41 AM MDT on April 23, 2014 (GMT -0600)
Clayton Municipal (KCAO) Elev 4970 ft | 36.45 °N, 103.15 °W | Change Station

Current weather conditions updated 46 minutes ago

Clear
Clear
66 °F
Feels Like 66 °F
N
23
Wind Variable Wind from SSW
Gusts 32 mph
Sunrise 6:10 AM
Sunset 7:35 PM
Moon Waning Crescent

Today is forecast to be Cooler than yesterday.

Pressure 29.59 in
Visibility 10.0 miles
Clouds Clear
Dew Point 42 °F
Humidity 42%
Rainfall 0.00 in
Snow Depth Not available.
UV 4 out of 16
Pollen 11.10 out of 12
Air Quality Not available.
Flu Activity Local Activity
METAR KCAO 231455Z AUTO 20020G28KT 10SM CLR 19/06 A2976 RMK AO2 PK WND 20030/1402 SLP019 T01890056 56012

More Conditions Fewer Conditions

Pressure 29.59 in
Visibility 10.0 miles
Clouds Clear
Dew Point 42 °F
Humidity 42%
Rainfall 0.00 in
Snow Depth Not available.
UV 4 out of 16
Pollen 11.10 out of 12
Air Quality Not available.
Flu Activity Local Activity
METAR KCAO 231455Z AUTO 20020G28KT 10SM CLR 19/06 A2976 RMK AO2 PK WND 20030/1402 SLP019 T01890056 56012

More Conditions Fewer Conditions

10-Day Weather Forecast

Almanac

Astronomy

Apr. 23, 2014 Rise Set
Actual Time 6:10 AM MDT 7:35 PM MDT
Civil Twilight 5:43 AM MDT 8:02 PM MDT
Nautical Twilight 5:10 AM MDT 8:35 PM MDT
Astronomical Twilight 4:36 AM MDT 9:09 PM MDT
Moon 2:33 AM MDT 1:56 PM MDT
Length of Visible Light 14h 19m
Length of Day
13h 25m
Tomorrow will be 2m 7s longer.
Waning Crescent, 35% of the Moon is Illuminated
Today
Waning Crescent
Apr 29
New
May 6
First Quarter
May 14
Full
May 21
Last Quarter

Today's Extremes

State Highs State Lows

Community

  • spring flowers
    spring flowers
  • Earth Day Spectrum Ove' Blue
    Earth Day Spectrum Ove' Blue
  • BARN B&W
    BARN B&W
  • April Sunset
    April Sunset
  • Waiting..
    Waiting..

WunderPhotos

Upload Photos

1,704,316 photos uploaded!

Nearby

Snow Depth

Station Depth Elevation
Tolby 0 in 10180 ft
North Costilla 1 in 10600 ft
Gallegos Peak 0 in 9800 ft
Wesner Springs 0 in 11120 ft
Elk Cabin 0 in 8210 ft

Coastal Water Temperatures

Place Temperature
No Stations Reporting

Earthquake Activity

City Distance Mag. Time & Date
No recent earthquake activity has been reported nearby.
Minimum magnitude displayed is 2.5.

Nearby Weather Stations

Station Location Temp. Dew Point Humidity Wind Precip. Elev Updated Type
Baca Valley, Des Moines, NM 58.0 °F 39 °F 50% SSW  at  17.0 mph -0.02 in / hr 6645 ft 8:30 AM MDT Normal
HADS CAPULIN VOLCANO RATON 26 ESE NM, Capulin, NM 53 °F - - North  at  - 0.00 in / hr 7232 ft 8:20 AM MDT MADIS

Show More Stations Show Fewer Stations

What do you think?

We're not finished. Please let us know what you like, what you don't like, and what you are still missing.